sensor_id;sensor_type;location;lat;lon;timestamp;temperature;humidity
48978;DHT22;34793;48.940;2.618;2022-11-20T00:02:21;14.20;84.90
48978;DHT22;34793;48.940;2.618;2022-11-20T00:04:46;14.10;84.70
48978;DHT22;34793;48.940;2.618;2022-11-20T00:07:11;14.20;84.70
48978;DHT22;34793;48.940;2.618;2022-11-20T00:09:37;14.30;84.60
48978;DHT22;34793;48.940;2.618;2022-11-20T00:12:02;14.30;84.20
48978;DHT22;34793;48.940;2.618;2022-11-20T00:14:28;14.40;83.70
48978;DHT22;34793;48.940;2.618;2022-11-20T00:16:54;14.40;83.50
48978;DHT22;34793;48.940;2.618;2022-11-20T00:19:19;14.30;83.40
48978;DHT22;34793;48.940;2.618;2022-11-20T00:21:45;14.40;84.10
48978;DHT22;34793;48.940;2.618;2022-11-20T00:24:10;14.50;83.50
48978;DHT22;34793;48.940;2.618;2022-11-20T00:26:36;14.60;83.20
48978;DHT22;34793;48.940;2.618;2022-11-20T00:29:02;14.60;82.40
48978;DHT22;34793;48.940;2.618;2022-11-20T00:31:28;14.60;82.50
48978;DHT22;34793;48.940;2.618;2022-11-20T00:33:54;14.60;82.30
48978;DHT22;34793;48.940;2.618;2022-11-20T00:36:20;14.70;81.80
48978;DHT22;34793;48.940;2.618;2022-11-20T00:38:46;14.50;82.00
48978;DHT22;34793;48.940;2.618;2022-11-20T00:41:13;14.50;81.70
48978;DHT22;34793;48.940;2.618;2022-11-20T00:43:39;14.40;82.10
48978;DHT22;34793;48.940;2.618;2022-11-20T00:46:14;14.50;81.90
48978;DHT22;34793;48.940;2.618;2022-11-20T00:48:40;14.40;81.90
48978;DHT22;34793;48.940;2.618;2022-11-20T00:51:06;14.40;81.40
48978;DHT22;34793;48.940;2.618;2022-11-20T00:53:31;14.40;81.30
48978;DHT22;34793;48.940;2.618;2022-11-20T00:56:04;14.30;81.10
48978;DHT22;34793;48.940;2.618;2022-11-20T00:58:31;14.40;80.60
48978;DHT22;34793;48.940;2.618;2022-11-20T01:01:00;14.40;80.90
48978;DHT22;34793;48.940;2.618;2022-11-20T01:03:26;14.30;81.10
48978;DHT22;34793;48.940;2.618;2022-11-20T01:05:51;14.30;80.90
48978;DHT22;34793;48.940;2.618;2022-11-20T01:08:17;14.20;80.30
48978;DHT22;34793;48.940;2.618;2022-11-20T01:10:42;14.30;80.70
48978;DHT22;34793;48.940;2.618;2022-11-20T01:13:08;14.30;80.70
48978;DHT22;34793;48.940;2.618;2022-11-20T01:15:52;14.20;80.40
48978;DHT22;34793;48.940;2.618;2022-11-20T01:18:17;14.30;80.30
48978;DHT22;34793;48.940;2.618;2022-11-20T01:20:43;14.20;80.10
48978;DHT22;34793;48.940;2.618;2022-11-20T01:23:08;14.20;80.30
48978;DHT22;34793;48.940;2.618;2022-11-20T01:25:34;14.10;80.40
48978;DHT22;34793;48.940;2.618;2022-11-20T01:27:59;14.10;80.10
48978;DHT22;34793;48.940;2.618;2022-11-20T01:30:25;14.10;80.50
48978;DHT22;34793;48.940;2.618;2022-11-20T01:32:50;14.10;80.60
48978;DHT22;34793;48.940;2.618;2022-11-20T01:35:16;14.10;80.30
48978;DHT22;34793;48.940;2.618;2022-11-20T01:37:41;14.10;80.00
48978;DHT22;34793;48.940;2.618;2022-11-20T01:40:07;14.10;79.80
48978;DHT22;34793;48.940;2.618;2022-11-20T01:42:33;14.00;80.30
48978;DHT22;34793;48.940;2.618;2022-11-20T01:48:01;14.00;79.50
48978;DHT22;34793;48.940;2.618;2022-11-20T01:50:27;13.90;79.60
48978;DHT22;34793;48.940;2.618;2022-11-20T01:52:58;13.80;80.10
48978;DHT22;34793;48.940;2.618;2022-11-20T01:55:25;13.70;81.00
48978;DHT22;34793;48.940;2.618;2022-11-20T01:57:51;13.70;81.00
48978;DHT22;34793;48.940;2.618;2022-11-20T02:00:18;13.50;80.50
48978;DHT22;34793;48.940;2.618;2022-11-20T02:02:46;13.50;80.90
48978;DHT22;34793;48.940;2.618;2022-11-20T02:07:48;13.50;81.20
48978;DHT22;34793;48.940;2.618;2022-11-20T02:10:14;13.50;80.90
48978;DHT22;34793;48.940;2.618;2022-11-20T02:12:39;13.50;80.70
48978;DHT22;34793;48.940;2.618;2022-11-20T02:15:23;13.60;80.60
48978;DHT22;34793;48.940;2.618;2022-11-20T02:17:49;13.60;80.40
48978;DHT22;34793;48.940;2.618;2022-11-20T02:20:14;13.60;80.60
48978;DHT22;34793;48.940;2.618;2022-11-20T02:22:48;13.60;80.20
48978;DHT22;34793;48.940;2.618;2022-11-20T02:25:16;13.60;80.00
48978;DHT22;34793;48.940;2.618;2022-11-20T02:27:42;13.60;80.00
48978;DHT22;34793;48.940;2.618;2022-11-20T02:30:08;13.60;80.30
48978;DHT22;34793;48.940;2.618;2022-11-20T02:32:34;13.60;80.10
48978;DHT22;34793;48.940;2.618;2022-11-20T02:37:44;13.70;79.90
48978;DHT22;34793;48.940;2.618;2022-11-20T02:40:10;13.70;79.80
48978;DHT22;34793;48.940;2.618;2022-11-20T02:42:36;13.70;79.30
48978;DHT22;34793;48.940;2.618;2022-11-20T02:45:02;13.50;80.10
48978;DHT22;34793;48.940;2.618;2022-11-20T02:47:28;13.40;80.90
48978;DHT22;34793;48.940;2.618;2022-11-20T02:49:53;13.20;81.40
48978;DHT22;34793;48.940;2.618;2022-11-20T02:52:19;13.20;81.50
48978;DHT22;34793;48.940;2.618;2022-11-20T02:54:44;13.20;81.50
48978;DHT22;34793;48.940;2.618;2022-11-20T02:57:10;13.20;81.70
48978;DHT22;34793;48.940;2.618;2022-11-20T02:59:35;13.20;80.90
48978;DHT22;34793;48.940;2.618;2022-11-20T03:02:01;13.30;80.80
48978;DHT22;34793;48.940;2.618;2022-11-20T03:04:26;13.30;80.60
48978;DHT22;34793;48.940;2.618;2022-11-20T03:06:52;13.30;81.20
48978;DHT22;34793;48.940;2.618;2022-11-20T03:09:17;13.30;80.60
48978;DHT22;34793;48.940;2.618;2022-11-20T03:11:43;13.30;80.50
48978;DHT22;34793;48.940;2.618;2022-11-20T03:14:08;13.40;80.30
48978;DHT22;34793;48.940;2.618;2022-11-20T03:16:34;13.40;80.30
48978;DHT22;34793;48.940;2.618;2022-11-20T03:18:59;13.40;79.80
48978;DHT22;34793;48.940;2.618;2022-11-20T03:21:25;13.30;79.80
48978;DHT22;34793;48.940;2.618;2022-11-20T03:23:52;13.40;79.70
48978;DHT22;34793;48.940;2.618;2022-11-20T03:26:19;13.30;79.80
48978;DHT22;34793;48.940;2.618;2022-11-20T03:28:49;13.30;79.70
48978;DHT22;34793;48.940;2.618;2022-11-20T03:31:15;13.30;80.00
48978;DHT22;34793;48.940;2.618;2022-11-20T03:33:42;13.40;79.90
48978;DHT22;34793;48.940;2.618;2022-11-20T03:36:09;13.40;79.70
48978;DHT22;34793;48.940;2.618;2022-11-20T03:38:36;13.30;79.50
48978;DHT22;34793;48.940;2.618;2022-11-20T03:41:06;13.30;79.50
48978;DHT22;34793;48.940;2.618;2022-11-20T03:43:32;13.20;79.00
48978;DHT22;34793;48.940;2.618;2022-11-20T03:45:57;13.20;79.30
48978;DHT22;34793;48.940;2.618;2022-11-20T03:48:23;13.30;79.20
48978;DHT22;34793;48.940;2.618;2022-11-20T03:50:49;13.20;79.70
48978;DHT22;34793;48.940;2.618;2022-11-20T03:53:15;13.10;79.30
48978;DHT22;34793;48.940;2.618;2022-11-20T03:55:41;13.00;80.20
48978;DHT22;34793;48.940;2.618;2022-11-20T03:58:06;13.00;80.60
48978;DHT22;34793;48.940;2.618;2022-11-20T04:00:41;13.00;80.30
48978;DHT22;34793;48.940;2.618;2022-11-20T04:03:06;13.00;80.80
48978;DHT22;34793;48.940;2.618;2022-11-20T04:05:32;12.90;80.70
48978;DHT22;34793;48.940;2.618;2022-11-20T04:07:58;12.90;80.50
48978;DHT22;34793;48.940;2.618;2022-11-20T04:10:23;12.90;80.20
48978;DHT22;34793;48.940;2.618;2022-11-20T04:12:49;12.90;80.50
48978;DHT22;34793;48.940;2.618;2022-11-20T04:15:14;12.90;80.30
48978;DHT22;34793;48.940;2.618;2022-11-20T04:17:39;12.90;80.40
48978;DHT22;34793;48.940;2.618;2022-11-20T04:20:05;12.80;80.60
48978;DHT22;34793;48.940;2.618;2022-11-20T04:22:31;12.60;81.50
48978;DHT22;34793;48.940;2.618;2022-11-20T04:24:56;12.60;81.60
48978;DHT22;34793;48.940;2.618;2022-11-20T04:27:22;12.70;81.60
48978;DHT22;34793;48.940;2.618;2022-11-20T04:29:47;12.60;81.30
48978;DHT22;34793;48.940;2.618;2022-11-20T04:32:13;12.60;82.40
48978;DHT22;34793;48.940;2.618;2022-11-20T04:34:38;12.70;81.90
48978;DHT22;34793;48.940;2.618;2022-11-20T04:37:04;12.70;81.40
48978;DHT22;34793;48.940;2.618;2022-11-20T04:39:29;12.70;81.70
48978;DHT22;34793;48.940;2.618;2022-11-20T04:41:55;12.70;81.50
48978;DHT22;34793;48.940;2.618;2022-11-20T04:44:39;12.70;81.20
48978;DHT22;34793;48.940;2.618;2022-11-20T04:47:04;12.70;80.50
48978;DHT22;34793;48.940;2.618;2022-11-20T04:49:30;12.70;80.60
48978;DHT22;34793;48.940;2.618;2022-11-20T04:51:57;12.60;81.30
48978;DHT22;34793;48.940;2.618;2022-11-20T04:54:22;12.60;80.60
48978;DHT22;34793;48.940;2.618;2022-11-20T04:56:48;12.60;80.90
48978;DHT22;34793;48.940;2.618;2022-11-20T04:59:13;12.50;80.30
48978;DHT22;34793;48.940;2.618;2022-11-20T05:01:39;12.50;80.20
48978;DHT22;34793;48.940;2.618;2022-11-20T05:04:04;12.50;80.00
48978;DHT22;34793;48.940;2.618;2022-11-20T05:06:31;12.40;80.40
48978;DHT22;34793;48.940;2.618;2022-11-20T05:08:57;12.30;80.90
48978;DHT22;34793;48.940;2.618;2022-11-20T05:11:22;12.30;81.00
48978;DHT22;34793;48.940;2.618;2022-11-20T05:13:48;12.30;80.80
48978;DHT22;34793;48.940;2.618;2022-11-20T05:16:18;12.20;81.00
48978;DHT22;34793;48.940;2.618;2022-11-20T05:18:44;12.20;81.20
48978;DHT22;34793;48.940;2.618;2022-11-20T05:21:11;12.30;81.70
48978;DHT22;34793;48.940;2.618;2022-11-20T05:23:36;12.40;81.60
48978;DHT22;34793;48.940;2.618;2022-11-20T05:26:02;12.40;81.90
48978;DHT22;34793;48.940;2.618;2022-11-20T05:28:28;12.40;81.90
48978;DHT22;34793;48.940;2.618;2022-11-20T05:30:54;12.40;82.30
48978;DHT22;34793;48.940;2.618;2022-11-20T05:33:19;12.40;82.60
48978;DHT22;34793;48.940;2.618;2022-11-20T05:35:45;12.50;82.00
48978;DHT22;34793;48.940;2.618;2022-11-20T05:38:10;12.40;82.10
48978;DHT22;34793;48.940;2.618;2022-11-20T05:40:36;12.50;82.10
48978;DHT22;34793;48.940;2.618;2022-11-20T05:43:13;12.50;81.80
48978;DHT22;34793;48.940;2.618;2022-11-20T05:45:39;12.60;81.30
48978;DHT22;34793;48.940;2.618;2022-11-20T05:48:04;12.50;81.80
48978;DHT22;34793;48.940;2.618;2022-11-20T05:50:30;12.50;82.20
48978;DHT22;34793;48.940;2.618;2022-11-20T05:52:57;12.60;82.30
48978;DHT22;34793;48.940;2.618;2022-11-20T05:55:23;12.50;81.70
48978;DHT22;34793;48.940;2.618;2022-11-20T05:57:48;12.60;81.90
48978;DHT22;34793;48.940;2.618;2022-11-20T06:00:14;12.60;81.80
48978;DHT22;34793;48.940;2.618;2022-11-20T06:02:40;12.40;82.20
48978;DHT22;34793;48.940;2.618;2022-11-20T06:05:05;12.50;82.20
48978;DHT22;34793;48.940;2.618;2022-11-20T06:07:31;12.60;82.00
48978;DHT22;34793;48.940;2.618;2022-11-20T06:09:56;12.40;82.60
48978;DHT22;34793;48.940;2.618;2022-11-20T06:12:22;12.40;83.10
48978;DHT22;34793;48.940;2.618;2022-11-20T06:14:47;12.30;83.00
48978;DHT22;34793;48.940;2.618;2022-11-20T06:17:13;12.20;83.10
48978;DHT22;34793;48.940;2.618;2022-11-20T06:19:38;12.30;83.30
48978;DHT22;34793;48.940;2.618;2022-11-20T06:22:04;12.30;83.20
48978;DHT22;34793;48.940;2.618;2022-11-20T06:24:29;12.30;83.10
48978;DHT22;34793;48.940;2.618;2022-11-20T06:26:55;12.20;83.50
48978;DHT22;34793;48.940;2.618;2022-11-20T06:29:20;12.10;83.20
48978;DHT22;34793;48.940;2.618;2022-11-20T06:31:46;12.10;83.90
48978;DHT22;34793;48.940;2.618;2022-11-20T06:34:11;12.20;83.80
48978;DHT22;34793;48.940;2.618;2022-11-20T06:36:37;12.20;83.40
48978;DHT22;34793;48.940;2.618;2022-11-20T06:39:02;12.30;82.80
48978;DHT22;34793;48.940;2.618;2022-11-20T06:41:28;12.30;82.70
48978;DHT22;34793;48.940;2.618;2022-11-20T06:43:53;12.30;82.50
48978;DHT22;34793;48.940;2.618;2022-11-20T06:46:19;12.20;82.30
48978;DHT22;34793;48.940;2.618;2022-11-20T06:48:45;12.10;82.70
48978;DHT22;34793;48.940;2.618;2022-11-20T06:51:10;12.00;82.60
48978;DHT22;34793;48.940;2.618;2022-11-20T06:53:36;11.90;83.30
48978;DHT22;34793;48.940;2.618;2022-11-20T06:56:02;11.70;84.20
48978;DHT22;34793;48.940;2.618;2022-11-20T06:58:29;11.80;83.50
48978;DHT22;34793;48.940;2.618;2022-11-20T07:01:01;11.90;83.10
48978;DHT22;34793;48.940;2.618;2022-11-20T07:03:26;11.90;82.90
48978;DHT22;34793;48.940;2.618;2022-11-20T07:05:54;11.90;82.10
48978;DHT22;34793;48.940;2.618;2022-11-20T07:08:19;11.90;81.40
48978;DHT22;34793;48.940;2.618;2022-11-20T07:10:45;12.00;81.20
48978;DHT22;34793;48.940;2.618;2022-11-20T07:13:10;12.00;81.40
48978;DHT22;34793;48.940;2.618;2022-11-20T07:15:36;12.00;81.80
48978;DHT22;34793;48.940;2.618;2022-11-20T07:18:01;12.00;82.60
48978;DHT22;34793;48.940;2.618;2022-11-20T07:20:27;12.10;81.40
48978;DHT22;34793;48.940;2.618;2022-11-20T07:22:56;12.10;81.60
48978;DHT22;34793;48.940;2.618;2022-11-20T07:25:22;12.00;82.30
48978;DHT22;34793;48.940;2.618;2022-11-20T07:27:48;11.80;82.70
48978;DHT22;34793;48.940;2.618;2022-11-20T07:30:14;11.90;82.90
48978;DHT22;34793;48.940;2.618;2022-11-20T07:32:39;12.00;82.90
48978;DHT22;34793;48.940;2.618;2022-11-20T07:35:05;12.00;83.30
48978;DHT22;34793;48.940;2.618;2022-11-20T07:37:33;12.10;83.20
48978;DHT22;34793;48.940;2.618;2022-11-20T07:39:59;12.20;83.10
48978;DHT22;34793;48.940;2.618;2022-11-20T07:42:24;12.20;83.60
48978;DHT22;34793;48.940;2.618;2022-11-20T07:44:49;12.20;83.40
48978;DHT22;34793;48.940;2.618;2022-11-20T07:47:15;12.30;83.00
48978;DHT22;34793;48.940;2.618;2022-11-20T07:49:40;12.40;82.90
48978;DHT22;34793;48.940;2.618;2022-11-20T07:52:06;12.20;83.60
48978;DHT22;34793;48.940;2.618;2022-11-20T07:54:31;11.90;84.40
48978;DHT22;34793;48.940;2.618;2022-11-20T07:56:57;11.90;84.20
48978;DHT22;34793;48.940;2.618;2022-11-20T07:59:22;12.10;84.30
48978;DHT22;34793;48.940;2.618;2022-11-20T08:01:48;12.20;83.70
48978;DHT22;34793;48.940;2.618;2022-11-20T08:04:14;12.10;83.80
48978;DHT22;34793;48.940;2.618;2022-11-20T08:06:41;12.10;84.40
48978;DHT22;34793;48.940;2.618;2022-11-20T08:09:07;12.10;84.20
48978;DHT22;34793;48.940;2.618;2022-11-20T08:11:32;12.10;84.80
48978;DHT22;34793;48.940;2.618;2022-11-20T08:14:16;12.60;85.80
48978;DHT22;34793;48.940;2.618;2022-11-20T08:16:43;12.10;84.80
48978;DHT22;34793;48.940;2.618;2022-11-20T08:19:09;12.20;85.50
48978;DHT22;34793;48.940;2.618;2022-11-20T08:21:34;12.10;85.40
48978;DHT22;34793;48.940;2.618;2022-11-20T08:24:00;12.20;85.50
48978;DHT22;34793;48.940;2.618;2022-11-20T08:26:25;12.20;85.70
48978;DHT22;34793;48.940;2.618;2022-11-20T08:28:57;12.20;85.50
48978;DHT22;34793;48.940;2.618;2022-11-20T08:31:23;12.30;85.50
48978;DHT22;34793;48.940;2.618;2022-11-20T08:33:49;12.20;85.00
48978;DHT22;34793;48.940;2.618;2022-11-20T08:36:15;12.10;86.20
48978;DHT22;34793;48.940;2.618;2022-11-20T08:38:40;12.10;86.50
48978;DHT22;34793;48.940;2.618;2022-11-20T08:41:07;12.20;85.60
48978;DHT22;34793;48.940;2.618;2022-11-20T08:44:04;12.00;86.30
48978;DHT22;34793;48.940;2.618;2022-11-20T08:46:34;12.20;85.90
48978;DHT22;34793;48.940;2.618;2022-11-20T08:49:00;12.20;86.40
48978;DHT22;34793;48.940;2.618;2022-11-20T08:51:26;12.30;86.40
48978;DHT22;34793;48.940;2.618;2022-11-20T08:53:51;12.30;85.40
48978;DHT22;34793;48.940;2.618;2022-11-20T08:56:17;12.30;85.10
48978;DHT22;34793;48.940;2.618;2022-11-20T08:58:43;12.20;85.80
48978;DHT22;34793;48.940;2.618;2022-11-20T09:01:08;12.20;86.40
48978;DHT22;34793;48.940;2.618;2022-11-20T09:03:34;12.30;86.20
48978;DHT22;34793;48.940;2.618;2022-11-20T09:06:00;12.00;86.50
48978;DHT22;34793;48.940;2.618;2022-11-20T09:08:26;12.20;87.20
48978;DHT22;34793;48.940;2.618;2022-11-20T09:10:52;12.20;86.90
48978;DHT22;34793;48.940;2.618;2022-11-20T09:13:18;12.10;87.90
48978;DHT22;34793;48.940;2.618;2022-11-20T09:15:43;12.20;87.70
48978;DHT22;34793;48.940;2.618;2022-11-20T09:18:09;12.30;86.90
48978;DHT22;34793;48.940;2.618;2022-11-20T09:20:34;12.30;88.30
48978;DHT22;34793;48.940;2.618;2022-11-20T09:23:00;12.40;87.90
48978;DHT22;34793;48.940;2.618;2022-11-20T09:25:26;12.40;88.40
48978;DHT22;34793;48.940;2.618;2022-11-20T09:27:58;12.30;88.80
48978;DHT22;34793;48.940;2.618;2022-11-20T09:30:23;12.10;89.00
48978;DHT22;34793;48.940;2.618;2022-11-20T09:32:49;12.40;89.20
48978;DHT22;34793;48.940;2.618;2022-11-20T09:35:14;12.40;89.00
48978;DHT22;34793;48.940;2.618;2022-11-20T09:37:40;12.40;89.00
48978;DHT22;34793;48.940;2.618;2022-11-20T09:40:06;12.10;89.40
48978;DHT22;34793;48.940;2.618;2022-11-20T09:48:10;12.80;88.60
48978;DHT22;34793;48.940;2.618;2022-11-20T09:50:45;12.90;88.70
48978;DHT22;34793;48.940;2.618;2022-11-20T09:55:39;13.20;87.40
48978;DHT22;34793;48.940;2.618;2022-11-20T09:58:05;13.20;87.50
48978;DHT22;34793;48.940;2.618;2022-11-20T10:00:31;13.20;88.10
48978;DHT22;34793;48.940;2.618;2022-11-20T10:17:55;12.90;89.40
48978;DHT22;34793;48.940;2.618;2022-11-20T10:25:44;12.80;89.70
48978;DHT22;34793;48.940;2.618;2022-11-20T10:28:21;12.90;89.80
48978;DHT22;34793;48.940;2.618;2022-11-20T10:30:55;12.90;90.00
48978;DHT22;34793;48.940;2.618;2022-11-20T10:33:22;12.80;90.00
48978;DHT22;34793;48.940;2.618;2022-11-20T10:35:53;12.90;90.10
48978;DHT22;34793;48.940;2.618;2022-11-20T10:39:03;12.80;90.10
48978;DHT22;34793;48.940;2.618;2022-11-20T10:41:09;12.80;90.60
48978;DHT22;34793;48.940;2.618;2022-11-20T10:43:54;12.90;90.60
48978;DHT22;34793;48.940;2.618;2022-11-20T10:46:22;13.20;90.60
48978;DHT22;34793;48.940;2.618;2022-11-20T10:48:47;12.90;90.50
48978;DHT22;34793;48.940;2.618;2022-11-20T10:58:52;13.30;90.30
48978;DHT22;34793;48.940;2.618;2022-11-20T11:01:19;13.10;90.40
48978;DHT22;34793;48.940;2.618;2022-11-20T11:03:48;13.30;90.50
48978;DHT22;34793;48.940;2.618;2022-11-20T11:06:17;13.40;90.00
48978;DHT22;34793;48.940;2.618;2022-11-20T11:08:44;13.40;90.20
48978;DHT22;34793;48.940;2.618;2022-11-20T11:11:24;13.50;90.20
48978;DHT22;34793;48.940;2.618;2022-11-20T11:13:51;13.50;90.00
48978;DHT22;34793;48.940;2.618;2022-11-20T11:16:21;13.60;90.10
48978;DHT22;34793;48.940;2.618;2022-11-20T11:18:48;13.80;89.90
48978;DHT22;34793;48.940;2.618;2022-11-20T11:21:13;13.70;89.50
48978;DHT22;34793;48.940;2.618;2022-11-20T11:23:46;13.70;89.50
48978;DHT22;34793;48.940;2.618;2022-11-20T11:26:19;13.80;89.70
48978;DHT22;34793;48.940;2.618;2022-11-20T11:28:57;13.60;90.30
48978;DHT22;34793;48.940;2.618;2022-11-20T11:31:24;13.70;90.40
48978;DHT22;34793;48.940;2.618;2022-11-20T11:33:50;13.50;90.60
48978;DHT22;34793;48.940;2.618;2022-11-20T11:36:24;13.30;91.00
48978;DHT22;34793;48.940;2.618;2022-11-20T11:38:53;13.30;91.00
48978;DHT22;34793;48.940;2.618;2022-11-20T11:41:20;13.20;91.20
48978;DHT22;34793;48.940;2.618;2022-11-20T11:43:55;13.20;91.50
48978;DHT22;34793;48.940;2.618;2022-11-20T11:46:41;13.00;91.80
48978;DHT22;34793;48.940;2.618;2022-11-20T11:51:36;12.80;92.80
48978;DHT22;34793;48.940;2.618;2022-11-20T11:54:04;12.70;92.90
48978;DHT22;34793;48.940;2.618;2022-11-20T11:56:33;12.80;92.80
48978;DHT22;34793;48.940;2.618;2022-11-20T11:59:00;12.80;92.90
48978;DHT22;34793;48.940;2.618;2022-11-20T12:07:12;12.90;92.20
48978;DHT22;34793;48.940;2.618;2022-11-20T12:09:37;12.90;92.50
48978;DHT22;34793;48.940;2.618;2022-11-20T12:12:10;12.80;92.60
48978;DHT22;34793;48.940;2.618;2022-11-20T12:14:37;12.60;92.70
48978;DHT22;34793;48.940;2.618;2022-11-20T12:17:02;12.60;93.00
48978;DHT22;34793;48.940;2.618;2022-11-20T12:19:29;12.60;93.00
48978;DHT22;34793;48.940;2.618;2022-11-20T12:29:51;13.00;93.00
48978;DHT22;34793;48.940;2.618;2022-11-20T12:43:06;13.30;92.50
48978;DHT22;34793;48.940;2.618;2022-11-20T12:45:57;13.30;92.30
48978;DHT22;34793;48.940;2.618;2022-11-20T12:58:55;13.10;92.50
48978;DHT22;34793;48.940;2.618;2022-11-20T13:01:25;13.20;92.50
48978;DHT22;34793;48.940;2.618;2022-11-20T13:06:46;13.10;92.60
48978;DHT22;34793;48.940;2.618;2022-11-20T13:09:14;13.20;92.50
48978;DHT22;34793;48.940;2.618;2022-11-20T13:14:47;13.30;92.60
48978;DHT22;34793;48.940;2.618;2022-11-20T13:17:22;13.40;92.60
48978;DHT22;34793;48.940;2.618;2022-11-20T13:19:52;13.40;92.60
48978;DHT22;34793;48.940;2.618;2022-11-20T13:22:27;13.60;92.30
48978;DHT22;34793;48.940;2.618;2022-11-20T13:24:53;13.50;92.70
48978;DHT22;34793;48.940;2.618;2022-11-20T13:27:20;13.70;92.70
48978;DHT22;34793;48.940;2.618;2022-11-20T13:29:47;13.70;93.10
48978;DHT22;34793;48.940;2.618;2022-11-20T13:32:23;14.00;92.90
48978;DHT22;34793;48.940;2.618;2022-11-20T13:34:52;14.30;92.40
48978;DHT22;34793;48.940;2.618;2022-11-20T13:37:29;14.50;92.00
48978;DHT22;34793;48.940;2.618;2022-11-20T13:40:05;14.60;91.60
48978;DHT22;34793;48.940;2.618;2022-11-20T13:42:31;14.60;91.70
48978;DHT22;34793;48.940;2.618;2022-11-20T13:45:01;14.50;91.40
48978;DHT22;34793;48.940;2.618;2022-11-20T13:47:28;14.40;91.40
48978;DHT22;34793;48.940;2.618;2022-11-20T13:49:57;14.30;92.00
48978;DHT22;34793;48.940;2.618;2022-11-20T14:00:27;14.70;91.60
48978;DHT22;34793;48.940;2.618;2022-11-20T14:05:30;14.70;91.50
48978;DHT22;34793;48.940;2.618;2022-11-20T14:07:57;14.70;91.40
48978;DHT22;34793;48.940;2.618;2022-11-20T14:10:25;14.80;91.30
48978;DHT22;34793;48.940;2.618;2022-11-20T14:12:50;14.70;91.50
48978;DHT22;34793;48.940;2.618;2022-11-20T14:17:51;14.60;91.60
48978;DHT22;34793;48.940;2.618;2022-11-20T14:20:17;14.70;91.30
48978;DHT22;34793;48.940;2.618;2022-11-20T14:27:41;14.80;90.70
48978;DHT22;34793;48.940;2.618;2022-11-20T14:30:14;14.70;91.20
48978;DHT22;34793;48.940;2.618;2022-11-20T14:32:40;14.70;91.10
48978;DHT22;34793;48.940;2.618;2022-11-20T14:35:07;14.80;91.10
48978;DHT22;34793;48.940;2.618;2022-11-20T14:37:35;14.70;91.00
48978;DHT22;34793;48.940;2.618;2022-11-20T14:40:01;14.70;91.20
48978;DHT22;34793;48.940;2.618;2022-11-20T14:42:27;14.90;90.90
48978;DHT22;34793;48.940;2.618;2022-11-20T14:44:59;14.90;91.10
48978;DHT22;34793;48.940;2.618;2022-11-20T14:47:29;14.80;90.90
48978;DHT22;34793;48.940;2.618;2022-11-20T14:49:56;14.70;90.90
48978;DHT22;34793;48.940;2.618;2022-11-20T14:52:23;14.70;91.20
48978;DHT22;34793;48.940;2.618;2022-11-20T14:54:50;14.90;91.10
48978;DHT22;34793;48.940;2.618;2022-11-20T14:59:45;15.00;90.90
48978;DHT22;34793;48.940;2.618;2022-11-20T15:02:11;15.00;90.80
48978;DHT22;34793;48.940;2.618;2022-11-20T15:07:22;15.10;90.80
48978;DHT22;34793;48.940;2.618;2022-11-20T15:09:58;15.30;90.60
48978;DHT22;34793;48.940;2.618;2022-11-20T15:12:24;15.30;90.40
48978;DHT22;34793;48.940;2.618;2022-11-20T15:14:49;15.40;90.50
48978;DHT22;34793;48.940;2.618;2022-11-20T15:17:15;15.10;90.60
48978;DHT22;34793;48.940;2.618;2022-11-20T15:19:40;15.20;90.60
48978;DHT22;34793;48.940;2.618;2022-11-20T15:22:08;15.10;90.70
48978;DHT22;34793;48.940;2.618;2022-11-20T15:24:37;15.20;90.60
48978;DHT22;34793;48.940;2.618;2022-11-20T15:27:03;15.30;90.50
48978;DHT22;34793;48.940;2.618;2022-11-20T15:29:28;15.30;90.20
48978;DHT22;34793;48.940;2.618;2022-11-20T15:31:54;15.40;90.40
48978;DHT22;34793;48.940;2.618;2022-11-20T15:34:20;15.30;90.40
48978;DHT22;34793;48.940;2.618;2022-11-20T15:36:45;15.40;90.30
48978;DHT22;34793;48.940;2.618;2022-11-20T15:39:11;15.40;90.30
48978;DHT22;34793;48.940;2.618;2022-11-20T15:41:36;15.40;90.40
48978;DHT22;34793;48.940;2.618;2022-11-20T15:44:02;15.40;90.30
48978;DHT22;34793;48.940;2.618;2022-11-20T15:46:32;15.40;90.60
48978;DHT22;34793;48.940;2.618;2022-11-20T15:49:02;15.50;90.10
48978;DHT22;34793;48.940;2.618;2022-11-20T15:51:35;15.60;90.20
48978;DHT22;34793;48.940;2.618;2022-11-20T15:54:05;15.60;90.10
48978;DHT22;34793;48.940;2.618;2022-11-20T15:56:34;15.60;90.10
48978;DHT22;34793;48.940;2.618;2022-11-20T15:59:00;15.40;90.40
48978;DHT22;34793;48.940;2.618;2022-11-20T16:01:26;15.40;90.30
48978;DHT22;34793;48.940;2.618;2022-11-20T16:03:52;15.30;90.40
48978;DHT22;34793;48.940;2.618;2022-11-20T16:06:17;15.40;90.00
48978;DHT22;34793;48.940;2.618;2022-11-20T16:08:43;15.30;90.00
48978;DHT22;34793;48.940;2.618;2022-11-20T16:11:10;15.20;90.00
48978;DHT22;34793;48.940;2.618;2022-11-20T16:13:36;15.10;90.20
48978;DHT22;34793;48.940;2.618;2022-11-20T16:16:21;14.90;90.40
48978;DHT22;34793;48.940;2.618;2022-11-20T16:18:47;14.90;90.50
48978;DHT22;34793;48.940;2.618;2022-11-20T16:21:13;15.00;90.40
48978;DHT22;34793;48.940;2.618;2022-11-20T16:23:39;14.90;90.30
48978;DHT22;34793;48.940;2.618;2022-11-20T16:26:13;15.10;89.80
48978;DHT22;34793;48.940;2.618;2022-11-20T16:28:39;14.90;89.20
48978;DHT22;34793;48.940;2.618;2022-11-20T16:31:09;14.90;88.60
48978;DHT22;34793;48.940;2.618;2022-11-20T16:33:34;14.70;88.90
48978;DHT22;34793;48.940;2.618;2022-11-20T16:36:06;14.50;88.90
48978;DHT22;34793;48.940;2.618;2022-11-20T16:38:31;14.50;88.50
48978;DHT22;34793;48.940;2.618;2022-11-20T16:41:00;14.70;88.40
48978;DHT22;34793;48.940;2.618;2022-11-20T16:43:25;14.50;87.90
48978;DHT22;34793;48.940;2.618;2022-11-20T16:45:50;14.60;87.80
48978;DHT22;34793;48.940;2.618;2022-11-20T16:48:16;14.60;87.60
48978;DHT22;34793;48.940;2.618;2022-11-20T16:50:45;14.70;87.40
48978;DHT22;34793;48.940;2.618;2022-11-20T16:53:12;14.70;86.50
48978;DHT22;34793;48.940;2.618;2022-11-20T16:55:37;14.80;86.10
48978;DHT22;34793;48.940;2.618;2022-11-20T16:58:03;14.60;86.40
48978;DHT22;34793;48.940;2.618;2022-11-20T17:00:28;14.60;85.80
48978;DHT22;34793;48.940;2.618;2022-11-20T17:02:54;14.70;85.40
48978;DHT22;34793;48.940;2.618;2022-11-20T17:05:19;14.50;85.80
48978;DHT22;34793;48.940;2.618;2022-11-20T17:07:45;14.50;85.20
48978;DHT22;34793;48.940;2.618;2022-11-20T17:10:10;14.50;85.00
48978;DHT22;34793;48.940;2.618;2022-11-20T17:12:36;14.50;85.00
48978;DHT22;34793;48.940;2.618;2022-11-20T17:15:01;14.50;84.70
48978;DHT22;34793;48.940;2.618;2022-11-20T17:17:28;14.40;84.10
48978;DHT22;34793;48.940;2.618;2022-11-20T17:19:54;14.50;84.70
48978;DHT22;34793;48.940;2.618;2022-11-20T17:22:19;14.70;83.80